Time;durP1;ratioP1;P1;durP2;ratioP2;P2;SDS_P1;SDS_P2;PMS_P1;PMS_P2;Temp;Humidity;BMP_temperature;BMP_pressure;BME280_temperature;BME280_humidity;BME280_pressure;Samples;Min_cycle;Max_cycle;Signal;HPM_P1;HPM_P2
2021/08/14 00:00:38;;;;;;;7.10;6.40;;;;;23.80;101103.00;;;;2063504;28;20196;-54
2021/08/14 00:01:39;;;;;;;7.00;6.27;;;;;23.80;101107.00;;;;2066975;28;20210;-57
2021/08/14 00:02:39;;;;;;;7.00;5.80;;;;;23.80;101107.00;;;;2067541;28;20219;-57
2021/08/14 00:03:39;;;;;;;8.60;5.87;;;;;23.80;101099.00;;;;2063590;28;20207;-54
2021/08/14 00:04:40;;;;;;;6.57;5.97;;;;;23.80;101093.00;;;;2065013;28;20293;-53
2021/08/14 00:05:40;;;;;;;7.03;5.10;;;;;23.80;101100.00;;;;2071562;28;20202;-55
2021/08/14 00:06:40;;;;;;;9.47;6.27;;;;;23.80;101094.00;;;;2067196;28;20195;-54
2021/08/14 00:07:41;;;;;;;9.20;5.93;;;;;23.80;101090.00;;;;2065026;28;20210;-57
2021/08/14 00:08:42;;;;;;;7.17;5.43;;;;;23.80;101101.00;;;;2063588;28;20223;-54
2021/08/14 00:09:43;;;;;;;6.30;5.70;;;;;23.80;101095.00;;;;2066605;28;20205;-55
2021/08/14 00:10:43;;;;;;;5.93;5.33;;;;;23.80;101095.00;;;;2067367;28;20630;-54
2021/08/14 00:11:43;;;;;;;7.87;6.17;;;;;23.80;101105.00;;;;2069843;28;20218;-55
2021/08/14 00:12:44;;;;;;;5.73;5.07;;;;;23.80;101092.00;;;;2065533;28;20211;-53
2021/08/14 00:13:44;;;;;;;6.80;5.17;;;;;23.80;101096.00;;;;2071103;28;20301;-54
2021/08/14 00:14:44;;;;;;;7.07;6.37;;;;;23.80;101091.00;;;;2071848;28;20695;-53
2021/08/14 00:15:45;;;;;;;6.57;5.27;;;;;23.80;101096.00;;;;2068146;28;20207;-54
2021/08/14 00:16:45;;;;;;;6.10;5.33;;;;;23.80;101103.00;;;;2067367;28;20226;-56
2021/08/14 00:17:45;;;;;;;6.30;5.57;;;;;23.80;101095.00;;;;2063412;28;20565;-56
2021/08/14 00:18:46;;;;;;;5.90;5.30;;;;;23.80;101083.00;;;;2064984;28;20238;-57
2021/08/14 00:19:46;;;;;;;5.70;5.10;;;;;23.80;101091.00;;;;2065964;28;20214;-55
2021/08/14 00:20:47;;;;;;;7.50;6.03;;;;;23.80;101091.00;;;;2084496;28;20292;-54
2021/08/14 00:21:47;;;;;;;7.47;5.70;;;;;23.80;101084.00;;;;2087099;28;20275;-55
2021/08/14 00:22:47;;;;;;;6.00;5.40;;;;;23.80;101079.00;;;;2071670;28;20206;-56
2021/08/14 00:23:48;;;;;;;6.47;5.63;;;;;23.80;101086.00;;;;2071619;28;20340;-57
2021/08/14 00:24:48;;;;;;;5.80;5.13;;;;;23.80;101086.00;;;;2070976;28;20308;-54
2021/08/14 00:25:48;;;;;;;7.43;5.57;;;;;23.80;101080.00;;;;2068401;28;20210;-54
2021/08/14 00:26:51;;;;;;;6.60;6.00;;;;;23.80;101079.00;;;;2070049;28;20856;-55
2021/08/14 00:27:51;;;;;;;5.85;5.25;;;;;23.80;101078.00;;;;2062732;28;20584;-55
2021/08/14 00:28:51;;;;;;;6.20;5.60;;;;;23.80;101073.00;;;;2066559;28;20226;-56
2021/08/14 00:29:52;;;;;;;5.73;4.53;;;;;23.80;101082.00;;;;2067896;28;20706;-55
2021/08/14 00:30:52;;;;;;;6.57;5.90;;;;;23.80;101080.00;;;;2070888;28;20305;-54
2021/08/14 00:31:53;;;;;;;6.67;5.47;;;;;23.80;101082.00;;;;2067957;28;20335;-54
2021/08/14 00:32:53;;;;;;;6.37;5.40;;;;;23.80;101082.00;;;;2066420;28;20871;-56
2021/08/14 00:33:53;;;;;;;5.87;4.70;;;;;23.80;101081.00;;;;2067173;28;20218;-55
2021/08/14 00:34:54;;;;;;;6.40;5.63;;;;;23.80;101088.00;;;;2065194;28;20218;-54
2021/08/14 00:35:54;;;;;;;6.03;5.30;;;;;23.70;101087.00;;;;2070792;28;20229;-57
2021/08/14 00:36:54;;;;;;;6.10;5.30;;;;;23.80;101085.00;;;;2068024;28;20751;-54
2021/08/14 00:37:55;;;;;;;6.03;5.07;;;;;23.80;101087.00;;;;2067401;28;20978;-54
2021/08/14 00:38:57;;;;;;;8.17;5.50;;;;;23.80;101089.00;;;;2066953;28;20446;-54
2021/08/14 00:39:58;;;;;;;5.43;4.93;;;;;23.70;101085.00;;;;2061910;28;20215;-53
2021/08/14 00:40:58;;;;;;;5.57;4.80;;;;;23.80;101083.00;;;;2063165;28;20225;-55
2021/08/14 00:41:58;;;;;;;5.70;5.20;;;;;23.70;101089.00;;;;2063204;28;20207;-57
2021/08/14 00:42:59;;;;;;;5.47;4.97;;;;;23.70;101086.00;;;;2070373;28;20302;-56
2021/08/14 00:44:02;;;;;;;6.60;5.33;;;;;23.70;101083.00;;;;2070903;28;20210;-57
2021/08/14 00:45:03;;;;;;;6.28;5.32;;;;;23.70;101081.00;;;;2065884;28;20241;-57
2021/08/14 00:46:04;;;;;;;6.07;5.32;;;;;23.70;101080.00;;;;2066413;28;20218;-55
2021/08/14 00:47:05;;;;;;;6.40;5.23;;;;;23.70;101075.00;;;;2066355;28;20210;-57
2021/08/14 00:48:10;;;;;;;6.55;4.97;;;;;23.70;101083.00;;;;2065621;28;20260;-55
2021/08/14 00:49:11;;;;;;;6.40;5.43;;;;;23.70;101070.00;;;;2066766;28;20234;-57
2021/08/14 00:50:12;;;;;;;6.05;5.20;;;;;23.80;101048.00;;;;2070552;28;20310;-55
2021/08/14 00:51:12;;;;;;;6.20;5.37;;;;;23.80;101070.00;;;;2069088;28;20393;-57
2021/08/14 00:52:13;;;;;;;6.03;5.43;;;;;23.70;101069.00;;;;2062406;28;20229;-55
2021/08/14 00:53:13;;;;;;;5.23;4.73;;;;;23.70;101066.00;;;;2063455;28;20214;-55
2021/08/14 00:54:14;;;;;;;6.47;4.87;;;;;23.70;101066.00;;;;2069519;28;20226;-56
2021/08/14 00:55:14;;;;;;;5.57;5.00;;;;;23.70;101071.00;;;;2063872;28;20923;-55
2021/08/14 00:56:15;;;;;;;5.50;5.00;;;;;23.70;101066.00;;;;2066944;28;20214;-58
2021/08/14 00:57:15;;;;;;;5.60;5.10;;;;;23.70;101068.00;;;;2071401;28;20236;-56
2021/08/14 00:58:16;;;;;;;5.50;4.90;;;;;23.70;101065.00;;;;2069953;28;20218;-56
2021/08/14 00:59:16;;;;;;;5.83;5.33;;;;;23.70;101064.00;;;;2063214;28;20310;-55
2021/08/14 01:00:16;;;;;;;5.30;4.80;;;;;23.70;101063.00;;;;2062825;28;20219;-55
2021/08/14 01:01:18;;;;;;;5.60;5.10;;;;;23.70;101059.00;;;;2065847;28;20305;-56
2021/08/14 01:02:19;;;;;;;5.85;5.35;;;;;23.70;101056.00;;;;2063974;28;20238;-53
2021/08/14 01:03:20;;;;;;;6.93;4.55;;;;;23.70;101060.00;;;;2067337;28;20219;-54
2021/08/14 01:04:22;;;;;;;5.97;5.07;;;;;23.70;101061.00;;;;2071278;28;20575;-54
2021/08/14 01:05:22;;;;;;;5.72;4.95;;;;;23.70;101061.00;;;;2069532;28;20974;-54
2021/08/14 01:06:24;;;;;;;5.27;4.77;;;;;23.70;101060.00;;;;2064638;28;20249;-55
2021/08/14 01:07:25;;;;;;;5.65;5.15;;;;;23.70;101049.00;;;;2064359;28;20696;-53
2021/08/14 01:08:25;;;;;;;5.47;4.87;;;;;23.70;101051.00;;;;2071010;28;20306;-55
2021/08/14 01:09:28;;;;;;;7.03;5.30;;;;;23.70;101051.00;;;;2071183;28;20719;-56
2021/08/14 01:10:28;;;;;;;5.13;4.50;;;;;23.70;101048.00;;;;2069914;28;20968;-56
2021/08/14 01:11:29;;;;;;;5.97;5.37;;;;;23.70;101050.00;;;;2067081;28;20226;-55
2021/08/14 01:12:29;;;;;;;5.90;5.00;;;;;23.70;101046.00;;;;2060297;28;20249;-56
2021/08/14 01:13:32;;;;;;;5.70;4.77;;;;;23.70;101055.00;;;;2065683;28;20227;-55
2021/08/14 01:14:33;;;;;;;5.78;5.07;;;;;23.70;101053.00;;;;2061888;28;20229;-56
2021/08/14 01:15:33;;;;;;;5.20;4.70;;;;;23.70;101059.00;;;;2060971;28;20226;-55
2021/08/14 01:16:33;;;;;;;4.53;4.10;;;;;23.70;101052.00;;;;2060677;28;20309;-58
2021/08/14 01:17:37;;;;;;;5.07;4.67;;;;;23.70;101050.00;;;;2067300;28;20252;-55
2021/08/14 01:18:44;;;;;;;5.35;4.85;;;;;23.70;101047.00;;;;2078588;28;20224;-57
2021/08/14 01:19:45;;;;;;;5.13;4.63;;;;;23.70;101046.00;;;;2070209;28;20214;-55
2021/08/14 01:20:46;;;;;;;5.15;4.65;;;;;23.70;101052.00;;;;2061192;28;20214;-56
2021/08/14 01:21:50;;;;;;;4.87;4.33;;;;;23.70;101054.00;;;;2062825;28;21000;-55
2021/08/14 01:22:50;;;;;;;5.95;5.10;;;;;23.70;101051.00;;;;2060750;28;20643;-55
2021/08/14 01:23:55;;;;;;;4.90;4.40;;;;;23.70;101056.00;;;;2060754;28;20219;-54
2021/08/14 01:24:56;;;;;;;4.97;4.47;;;;;23.70;101057.00;;;;2059156;28;20771;-56
2021/08/14 01:26:06;;;;;;;5.30;4.80;;;;;23.70;101056.00;;;;2055147;28;20218;-53
2021/08/14 01:27:06;;;;;;;5.50;5.00;;;;;23.70;101058.00;;;;2068477;28;20304;-57
2021/08/14 01:28:08;;;;;;;5.03;4.40;;;;;23.70;101053.00;;;;2060869;28;20626;-55
2021/08/14 01:29:08;;;;;;;4.93;4.53;;;;;23.70;101061.00;;;;2070270;28;20236;-57
2021/08/14 01:30:10;;;;;;;5.43;4.60;;;;;23.70;101053.00;;;;2062718;28;20215;-55
2021/08/14 01:31:12;;;;;;;5.18;4.68;;;;;23.70;101068.00;;;;2063056;28;20265;-57
2021/08/14 01:32:13;;;;;;;5.47;4.90;;;;;23.60;101054.00;;;;2054108;28;20664;-55
2021/08/14 01:33:13;;;;;;;6.97;4.50;;;;;23.50;101055.00;;;;2052062;28;20231;-54
2021/08/14 01:34:14;;;;;;;5.60;5.10;;;;;23.50;101054.00;;;;2071134;28;20217;-54
2021/08/14 01:35:14;;;;;;;7.73;4.43;;;;;23.50;101057.00;;;;2065787;28;20214;-55
2021/08/14 01:36:16;;;;;;;5.80;4.77;;;;;23.60;101051.00;;;;2055514;28;20216;-54
2021/08/14 01:37:16;;;;;;;5.55;4.57;;;;;23.50;101052.00;;;;2061905;28;20583;-56
2021/08/14 01:38:17;;;;;;;23.63;5.70;;;;;23.40;101050.00;;;;2059282;28;20227;-62
2021/08/14 01:39:18;;;;;;;9.13;5.32;;;;;23.40;101036.00;;;;2068217;28;20572;-65
2021/08/14 01:40:19;;;;;;;9.63;4.63;;;;;23.40;101043.00;;;;2066020;28;20214;-63
2021/08/14 01:41:21;;;;;;;11.65;4.90;;;;;23.50;101043.00;;;;2067796;28;20211;-61
2021/08/14 01:42:21;;;;;;;6.05;4.50;;;;;23.50;101049.00;;;;2064220;28;20674;-60
2021/08/14 01:43:22;;;;;;;6.83;5.00;;;;;23.50;101048.00;;;;2065190;28;20219;-60
2021/08/14 01:44:22;;;;;;;7.33;4.67;;;;;23.50;101043.00;;;;2061180;28;20214;-62
2021/08/14 01:45:23;;;;;;;6.53;4.87;;;;;23.50;101035.00;;;;2063200;28;20249;-60
2021/08/14 01:46:24;;;;;;;6.50;4.87;;;;;23.60;101044.00;;;;2057292;28;20302;-61
2021/08/14 01:47:24;;;;;;;6.53;4.40;;;;;23.50;101042.00;;;;2059521;28;20254;-60
2021/08/14 01:48:24;;;;;;;8.33;4.50;;;;;23.60;101043.00;;;;2061784;28;20478;-61
2021/08/14 01:49:25;;;;;;;7.97;5.10;;;;;23.60;101048.00;;;;2064620;28;20302;-60
2021/08/14 01:50:25;;;;;;;6.93;4.60;;;;;23.60;101045.00;;;;2063812;28;20226;-62
2021/08/14 01:51:26;;;;;;;6.70;4.90;;;;;23.60;101047.00;;;;2057593;28;20219;-61
2021/08/14 01:52:27;;;;;;;5.07;4.57;;;;;23.60;101047.00;;;;2066494;28;20555;-60
2021/08/14 01:53:27;;;;;;;6.10;5.40;;;;;23.60;101038.00;;;;2060944;28;20474;-63
2021/08/14 01:54:27;;;;;;;6.30;4.73;;;;;23.60;101047.00;;;;2061240;28;20588;-60
2021/08/14 01:55:28;;;;;;;5.10;4.60;;;;;23.60;101044.00;;;;2068948;28;20753;-59
2021/08/14 01:56:28;;;;;;;6.60;4.30;;;;;23.60;101038.00;;;;2056636;28;20223;-59
2021/08/14 01:57:29;;;;;;;5.43;4.93;;;;;23.60;101044.00;;;;2063932;28;20219;-65
2021/08/14 01:58:29;;;;;;;5.53;4.90;;;;;23.60;101041.00;;;;2064882;28;20766;-60
2021/08/14 01:59:31;;;;;;;5.17;4.67;;;;;23.60;101041.00;;;;2057373;28;20611;-59
2021/08/14 02:00:31;;;;;;;7.00;4.78;;;;;23.60;101041.00;;;;2063873;28;20227;-61
2021/08/14 02:01:32;;;;;;;5.93;4.73;;;;;23.60;101040.00;;;;2062825;28;20317;-60
2021/08/14 02:02:32;;;;;;;5.67;4.60;;;;;23.60;101046.00;;;;2065613;28;20569;-59
2021/08/14 02:03:32;;;;;;;4.80;4.40;;;;;23.60;101039.00;;;;2064694;28;20226;-59
2021/08/14 02:04:34;;;;;;;5.57;4.90;;;;;23.60;101040.00;;;;2056120;28;20223;-62
2021/08/14 02:05:34;;;;;;;4.65;4.25;;;;;23.60;101050.00;;;;2068325;28;20296;-60
2021/08/14 02:06:34;;;;;;;6.30;5.10;;;;;23.60;101048.00;;;;2062615;28;20220;-60
2021/08/14 02:07:35;;;;;;;5.27;4.77;;;;;23.60;101042.00;;;;2062392;28;20705;-59
2021/08/14 02:08:35;;;;;;;5.20;4.73;;;;;23.50;101040.00;;;;2068712;28;20237;-59
2021/08/14 02:09:36;;;;;;;5.33;4.37;;;;;23.50;101038.00;;;;2063770;28;20226;-61
2021/08/14 02:10:36;;;;;;;5.87;4.47;;;;;23.60;101031.00;;;;2061800;28;20317;-63
2021/08/14 02:11:37;;;;;;;6.43;5.03;;;;;23.60;101043.00;;;;2067863;28;20223;-63
2021/08/14 02:12:37;;;;;;;5.53;4.83;;;;;23.50;101037.00;;;;2059576;28;20246;-61
2021/08/14 02:13:39;;;;;;;5.93;4.90;;;;;23.60;101046.00;;;;2063707;28;20493;-59
2021/08/14 02:14:39;;;;;;;4.30;3.90;;;;;23.50;101039.00;;;;2061969;28;20293;-59
2021/08/14 02:15:40;;;;;;;5.80;4.73;;;;;23.50;101034.00;;;;2063804;28;20755;-59
2021/08/14 02:16:40;;;;;;;5.27;4.60;;;;;23.60;101041.00;;;;2064978;28;20286;-59
2021/08/14 02:17:41;;;;;;;5.10;4.20;;;;;23.60;101035.00;;;;2064747;28;20461;-60
2021/08/14 02:18:41;;;;;;;6.37;5.10;;;;;23.50;101033.00;;;;2060073;28;20297;-59
2021/08/14 02:19:41;;;;;;;4.40;4.00;;;;;23.50;101034.00;;;;2060760;28;20968;-59
2021/08/14 02:20:42;;;;;;;5.70;4.50;;;;;23.60;101038.00;;;;2062819;28;20218;-62
2021/08/14 02:21:42;;;;;;;5.10;4.40;;;;;23.50;101035.00;;;;2055270;28;20215;-60
2021/08/14 02:22:43;;;;;;;5.27;4.63;;;;;23.50;101037.00;;;;2063387;28;20245;-60
2021/08/14 02:23:43;;;;;;;5.70;4.83;;;;;23.50;101030.00;;;;2063074;28;20220;-59
2021/08/14 02:24:43;;;;;;;5.47;4.57;;;;;23.50;101029.00;;;;2066737;28;20370;-60
2021/08/14 02:25:44;;;;;;;6.03;4.60;;;;;23.50;101029.00;;;;2056664;28;20215;-63
2021/08/14 02:26:44;;;;;;;5.07;4.53;;;;;23.60;101030.00;;;;2056353;28;20302;-60
2021/08/14 02:27:45;;;;;;;5.90;4.20;;;;;23.60;101034.00;;;;2060665;28;20222;-60
2021/08/14 02:28:46;;;;;;;5.37;4.37;;;;;23.60;101036.00;;;;2060226;28;20223;-59
2021/08/14 02:29:46;;;;;;;4.63;4.23;;;;;23.60;101036.00;;;;2063910;28;20221;-59
2021/08/14 02:30:46;;;;;;;5.27;4.63;;;;;23.60;101034.00;;;;2062973;28;20215;-60
2021/08/14 02:31:48;;;;;;;5.43;4.23;;;;;23.60;101035.00;;;;2067744;28;20218;-64
2021/08/14 02:32:49;;;;;;;4.70;4.30;;;;;23.60;101042.00;;;;2062582;28;20326;-60
2021/08/14 02:33:49;;;;;;;4.90;4.50;;;;;23.50;101033.00;;;;2063451;28;20214;-59
2021/08/14 02:34:49;;;;;;;4.77;4.30;;;;;23.50;101035.00;;;;2061664;28;20293;-60
2021/08/14 02:35:50;;;;;;;5.07;4.30;;;;;23.60;101036.00;;;;2055933;28;20207;-57
2021/08/14 02:36:50;;;;;;;4.63;4.20;;;;;23.50;101032.00;;;;2059733;28;20369;-54
2021/08/14 02:37:51;;;;;;;5.93;4.60;;;;;23.50;101030.00;;;;2055689;28;20254;-55
2021/08/14 02:38:52;;;;;;;5.13;4.37;;;;;23.50;101027.00;;;;2059541;28;20208;-55
2021/08/14 02:39:52;;;;;;;8.03;4.33;;;;;23.60;101032.00;;;;2054844;28;20505;-53
2021/08/14 02:40:52;;;;;;;6.50;5.00;;;;;23.60;101033.00;;;;2061147;28;20699;-55
2021/08/14 02:41:54;;;;;;;7.37;4.07;;;;;23.60;101026.00;;;;2064099;28;20630;-54
2021/08/14 02:42:54;;;;;;;5.45;4.28;;;;;23.60;101019.00;;;;2071000;28;20249;-55
2021/08/14 02:43:54;;;;;;;5.10;4.33;;;;;23.60;101025.00;;;;2071175;28;20206;-55
2021/08/14 02:44:55;;;;;;;6.00;4.33;;;;;23.60;101017.00;;;;2065895;28;20215;-55
2021/08/14 02:45:55;;;;;;;8.97;4.43;;;;;23.60;101023.00;;;;2067199;28;20203;-54
2021/08/14 02:46:56;;;;;;;5.03;4.00;;;;;23.60;101016.00;;;;2055777;28;20207;-54
2021/08/14 02:48:00;;;;;;;6.20;4.75;;;;;23.60;101021.00;;;;2061735;28;20715;-53
2021/08/14 02:49:01;;;;;;;4.90;4.30;;;;;23.60;101017.00;;;;2059919;28;20230;-55
2021/08/14 02:50:02;;;;;;;6.10;4.00;;;;;23.60;101015.00;;;;2061234;28;20260;-53
2021/08/14 02:51:03;;;;;;;6.05;4.43;;;;;23.60;101020.00;;;;2060805;28;20549;-53
2021/08/14 02:52:03;;;;;;;6.07;4.63;;;;;23.60;101019.00;;;;2067574;28;20223;-54
2021/08/14 02:53:04;;;;;;;5.40;3.90;;;;;23.60;101025.00;;;;2060865;28;20294;-55
2021/08/14 02:54:04;;;;;;;5.57;4.37;;;;;23.60;101008.00;;;;2062412;28;20221;-53
2021/08/14 02:55:05;;;;;;;4.90;3.93;;;;;23.60;101020.00;;;;2056821;28;20235;-54
2021/08/14 02:56:05;;;;;;;5.00;4.07;;;;;23.60;101016.00;;;;2056880;28;20231;-54
2021/08/14 02:57:06;;;;;;;5.73;4.90;;;;;23.60;101015.00;;;;2067517;28;20233;-54
2021/08/14 02:58:06;;;;;;;5.03;4.50;;;;;23.60;101014.00;;;;2072348;28;20226;-54
2021/08/14 02:59:07;;;;;;;5.80;4.50;;;;;23.60;101009.00;;;;2071862;28;20826;-55
2021/08/14 03:00:07;;;;;;;5.03;4.50;;;;;23.60;101013.00;;;;2068508;28;20256;-54
2021/08/14 03:01:08;;;;;;;5.00;4.17;;;;;23.60;101010.00;;;;2071951;28;20221;-55
2021/08/14 03:02:08;;;;;;;4.73;4.27;;;;;23.50;101011.00;;;;2072333;28;20962;-53
2021/08/14 03:03:09;;;;;;;4.43;4.00;;;;;23.50;101019.00;;;;2066641;28;20684;-54
2021/08/14 03:04:09;;;;;;;5.70;4.27;;;;;23.60;101016.00;;;;2067050;28;20623;-54
2021/08/14 03:05:10;;;;;;;5.93;4.20;;;;;23.60;101017.00;;;;2065377;28;20223;-55
2021/08/14 03:06:26;;;;;;;4.80;4.30;;;;;23.50;101016.00;;;;2070383;28;20317;-55
2021/08/14 03:07:26;;;;;;;5.60;4.63;;;;;23.60;101026.00;;;;2058832;28;20266;-54
2021/08/14 03:08:26;;;;;;;6.83;4.20;;;;;23.60;101018.00;;;;2064029;28;20998;-55
2021/08/14 03:09:27;;;;;;;5.03;4.53;;;;;23.60;101023.00;;;;2066953;28;20211;-55
2021/08/14 03:10:27;;;;;;;4.70;4.30;;;;;23.50;101022.00;;;;2067143;28;20215;-54
2021/08/14 03:11:29;;;;;;;4.70;4.30;;;;;23.60;101016.00;;;;2062473;28;20565;-55
2021/08/14 03:12:30;;;;;;;5.18;4.35;;;;;23.50;101018.00;;;;2060684;28;20225;-55
2021/08/14 03:13:30;;;;;;;4.63;4.00;;;;;23.50;101021.00;;;;2062798;28;20298;-54
2021/08/14 03:14:30;;;;;;;4.80;4.10;;;;;23.50;101018.00;;;;2053768;28;20219;-54
2021/08/14 03:15:31;;;;;;;5.10;4.20;;;;;23.50;101016.00;;;;2069701;28;20217;-55
2021/08/14 03:16:32;;;;;;;3.90;3.43;;;;;23.50;101021.00;;;;2066875;28;20218;-55
2021/08/14 03:17:32;;;;;;;4.78;4.38;;;;;23.50;101019.00;;;;2067433;28;20642;-54
2021/08/14 03:18:33;;;;;;;5.73;4.40;;;;;23.50;101014.00;;;;2061203;28;20273;-55
2021/08/14 03:19:33;;;;;;;4.40;4.00;;;;;23.50;101022.00;;;;2058608;28;20219;-55
2021/08/14 03:20:34;;;;;;;5.10;4.60;;;;;23.50;101025.00;;;;2059379;28;20233;-55
2021/08/14 03:21:34;;;;;;;5.03;4.27;;;;;23.50;101023.00;;;;2061663;28;20230;-55
2021/08/14 03:22:34;;;;;;;4.93;4.53;;;;;23.50;101016.00;;;;2059946;28;20695;-55
2021/08/14 03:23:35;;;;;;;5.00;4.50;;;;;23.50;101018.00;;;;2066246;28;21004;-54
2021/08/14 03:24:36;;;;;;;5.57;4.53;;;;;23.50;101014.00;;;;2061792;28;20211;-53
2021/08/14 03:25:37;;;;;;;4.50;4.05;;;;;23.50;101017.00;;;;2054698;28;20215;-53
2021/08/14 03:26:37;;;;;;;5.70;4.00;;;;;23.50;101016.00;;;;2066255;28;20214;-55
2021/08/14 03:27:37;;;;;;;4.67;4.10;;;;;23.50;101019.00;;;;2064917;28;20227;-55
2021/08/14 03:28:38;;;;;;;5.17;3.87;;;;;23.50;101018.00;;;;2057972;28;20223;-53
2021/08/14 03:29:39;;;;;;;5.15;4.30;;;;;23.50;101004.00;;;;2051718;28;20211;-55
2021/08/14 03:30:39;;;;;;;4.87;4.47;;;;;23.50;101012.00;;;;2057979;28;20250;-54
2021/08/14 03:31:39;;;;;;;4.50;4.10;;;;;23.50;101010.00;;;;2053352;28;20250;-55
2021/08/14 03:32:41;;;;;;;4.83;4.00;;;;;23.50;101008.00;;;;2061170;28;20349;-54
2021/08/14 03:33:41;;;;;;;4.63;4.20;;;;;23.50;101008.00;;;;2073822;28;20202;-55
2021/08/14 03:34:41;;;;;;;3.93;3.47;;;;;23.50;101005.00;;;;2074923;28;20217;-54
2021/08/14 03:35:42;;;;;;;4.60;4.20;;;;;23.50;101015.00;;;;2059360;28;20299;-53
2021/08/14 03:36:42;;;;;;;4.10;3.70;;;;;23.50;101010.00;;;;2062947;28;20203;-54
2021/08/14 03:37:42;;;;;;;4.90;4.20;;;;;23.50;101019.00;;;;2062210;28;20702;-54
2021/08/14 03:38:43;;;;;;;4.33;3.93;;;;;23.50;101011.00;;;;2059612;28;20571;-55
2021/08/14 03:39:43;;;;;;;4.93;3.90;;;;;23.50;101015.00;;;;2055982;28;20220;-53
2021/08/14 03:40:43;;;;;;;4.00;3.60;;;;;23.50;101011.00;;;;2055513;28;20211;-53
2021/08/14 03:41:44;;;;;;;4.30;3.90;;;;;23.50;101013.00;;;;2063012;28;20210;-54
2021/08/14 03:42:44;;;;;;;4.50;4.10;;;;;23.50;101015.00;;;;2055893;28;20580;-55
2021/08/14 03:43:44;;;;;;;4.10;3.70;;;;;23.50;101015.00;;;;2059561;28;20553;-53
2021/08/14 03:44:45;;;;;;;4.07;3.67;;;;;23.50;101018.00;;;;2055793;28;20215;-55
2021/08/14 03:45:46;;;;;;;5.50;4.10;;;;;23.50;101016.00;;;;2059571;28;20267;-53
2021/08/14 03:46:46;;;;;;;5.47;4.05;;;;;23.50;101011.00;;;;2061901;28;20207;-54
2021/08/14 03:47:46;;;;;;;4.33;3.93;;;;;23.40;101005.00;;;;2063768;28;20222;-54
2021/08/14 03:48:47;;;;;;;5.07;4.10;;;;;23.50;101007.00;;;;2056468;28;20226;-55
2021/08/14 03:49:47;;;;;;;5.07;4.10;;;;;23.50;101009.00;;;;2059708;28;20289;-55
2021/08/14 03:50:47;;;;;;;4.07;3.67;;;;;23.50;101009.00;;;;2063402;28;20221;-55
2021/08/14 03:51:48;;;;;;;5.07;4.17;;;;;23.50;100994.00;;;;2058957;28;20226;-54
2021/08/14 03:52:48;;;;;;;5.50;3.80;;;;;23.50;101012.00;;;;2062850;28;20953;-55
2021/08/14 03:53:49;;;;;;;5.40;4.10;;;;;23.50;101003.00;;;;2060756;28;20223;-54
2021/08/14 03:54:49;;;;;;;4.53;4.00;;;;;23.50;101007.00;;;;2058194;28;20218;-54
2021/08/14 03:55:50;;;;;;;4.30;3.90;;;;;23.50;100998.00;;;;2059884;28;20275;-55
2021/08/14 03:56:52;;;;;;;6.00;4.43;;;;;23.50;101011.00;;;;2059459;28;20713;-54
2021/08/14 03:57:53;;;;;;;4.10;3.70;;;;;23.50;101010.00;;;;2063293;28;20214;-54
2021/08/14 03:58:53;;;;;;;5.43;4.07;;;;;23.50;101011.00;;;;2061058;28;20207;-55
2021/08/14 03:59:54;;;;;;;4.70;4.30;;;;;23.50;101009.00;;;;2059130;28;20245;-54
2021/08/14 04:00:55;;;;;;;4.87;4.03;;;;;23.50;101007.00;;;;2057874;28;20263;-54
2021/08/14 04:01:55;;;;;;;4.83;4.00;;;;;23.50;101008.00;;;;2063147;28;20458;-54
2021/08/14 04:02:56;;;;;;;4.67;4.27;;;;;23.50;101008.00;;;;2058003;28;20226;-55
2021/08/14 04:03:56;;;;;;;5.17;4.30;;;;;23.50;101013.00;;;;2056474;28;20226;-55
2021/08/14 04:04:56;;;;;;;4.80;4.40;;;;;23.50;101017.00;;;;2058300;28;21049;-55
2021/08/14 04:05:57;;;;;;;7.80;4.60;;;;;23.50;101008.00;;;;2054911;28;20747;-55
2021/08/14 04:06:57;;;;;;;4.73;4.20;;;;;23.50;101008.00;;;;2056599;28;20215;-55
2021/08/14 04:07:58;;;;;;;4.50;4.10;;;;;23.50;101006.00;;;;2061368;28;20219;-55
2021/08/14 04:08:58;;;;;;;4.97;4.30;;;;;23.50;101005.00;;;;2056503;28;20697;-55
2021/08/14 04:09:58;;;;;;;4.80;4.00;;;;;23.50;101004.00;;;;2062777;28;20747;-54
2021/08/14 04:10:59;;;;;;;5.20;4.70;;;;;23.50;101004.00;;;;2055903;28;20646;-55
2021/08/14 04:11:59;;;;;;;4.87;4.40;;;;;23.50;101008.00;;;;2061132;28;20819;-55
2021/08/14 04:13:00;;;;;;;5.10;4.60;;;;;23.50;101010.00;;;;2060650;28;20290;-55
2021/08/14 04:14:00;;;;;;;8.20;4.60;;;;;23.50;101008.00;;;;2053388;28;20230;-55
2021/08/14 04:15:03;;;;;;;4.33;3.93;;;;;23.50;101012.00;;;;2057817;28;20349;-54
2021/08/14 04:16:04;;;;;;;6.00;4.20;;;;;23.50;101008.00;;;;2065435;28;20202;-56
2021/08/14 04:17:05;;;;;;;4.93;4.13;;;;;23.50;101015.00;;;;2063902;28;20214;-55
2021/08/14 04:18:05;;;;;;;4.70;4.20;;;;;23.50;101011.00;;;;2066922;28;20298;-54
2021/08/14 04:19:08;;;;;;;4.83;4.23;;;;;23.50;101017.00;;;;2065168;28;20214;-55
2021/08/14 04:20:11;;;;;;;4.32;3.92;;;;;23.50;101012.00;;;;2071675;28;20214;-55
2021/08/14 04:21:11;;;;;;;5.00;4.50;;;;;23.50;101019.00;;;;2062834;28;20221;-55
2021/08/14 04:22:12;;;;;;;4.35;3.92;;;;;23.40;101010.00;;;;2051630;28;20760;-55
2021/08/14 04:23:13;;;;;;;4.70;4.23;;;;;23.50;100966.00;;;;2060710;28;20211;-55
2021/08/14 04:24:14;;;;;;;5.10;4.50;;;;;23.50;101013.00;;;;2057057;28;20228;-55
2021/08/14 04:25:14;;;;;;;4.63;4.23;;;;;23.50;101010.00;;;;2066619;28;20596;-55
2021/08/14 04:26:14;;;;;;;4.53;3.90;;;;;23.50;101011.00;;;;2057500;28;20216;-55
2021/08/14 04:27:15;;;;;;;5.80;4.13;;;;;23.40;101021.00;;;;2059434;28;20219;-54
2021/08/14 04:28:15;;;;;;;4.40;3.90;;;;;23.50;101015.00;;;;2054851;28;20298;-55
2021/08/14 04:29:16;;;;;;;4.70;4.20;;;;;23.50;101018.00;;;;2059665;28;20211;-55
2021/08/14 04:30:17;;;;;;;4.65;4.25;;;;;23.40;101017.00;;;;2063907;28;20211;-55
2021/08/14 04:31:17;;;;;;;4.63;4.23;;;;;23.40;101023.00;;;;2057279;28;20211;-54
2021/08/14 04:32:18;;;;;;;5.43;4.70;;;;;23.30;101021.00;;;;2062495;28;20309;-53
2021/08/14 04:33:18;;;;;;;6.70;5.20;;;;;23.40;101015.00;;;;2063531;28;20302;-54
2021/08/14 04:34:18;;;;;;;5.33;4.83;;;;;23.50;101021.00;;;;2066099;28;20218;-54
2021/08/14 04:35:19;;;;;;;7.07;5.67;;;;;23.50;101013.00;;;;2071551;28;20686;-54
2021/08/14 04:36:19;;;;;;;5.33;4.70;;;;;23.50;101011.00;;;;2066333;28;20218;-54
2021/08/14 04:37:20;;;;;;;7.70;4.90;;;;;23.50;101013.00;;;;2070363;28;20268;-55
2021/08/14 04:38:20;;;;;;;5.30;4.80;;;;;23.50;101018.00;;;;2071445;28;20225;-53
2021/08/14 04:39:20;;;;;;;5.00;4.60;;;;;23.50;101009.00;;;;2070025;28;20221;-55
2021/08/14 04:40:21;;;;;;;5.20;4.70;;;;;23.50;101015.00;;;;2070757;28;20218;-54
2021/08/14 04:41:22;;;;;;;5.50;4.78;;;;;23.50;101021.00;;;;2064472;28;20223;-55
2021/08/14 04:42:22;;;;;;;5.83;5.23;;;;;23.50;101016.00;;;;2062586;28;20285;-55
2021/08/14 04:43:23;;;;;;;5.50;4.93;;;;;23.50;101017.00;;;;2062845;28;20215;-54
2021/08/14 04:44:23;;;;;;;4.63;4.23;;;;;23.40;101017.00;;;;2063521;28;20302;-55
2021/08/14 04:45:24;;;;;;;5.67;5.13;;;;;23.50;101009.00;;;;2066643;28;20227;-55
2021/08/14 04:46:24;;;;;;;6.18;5.57;;;;;23.40;101009.00;;;;2065532;28;20293;-54
2021/08/14 04:47:25;;;;;;;6.63;5.43;;;;;23.40;101013.00;;;;2065274;28;20222;-57
2021/08/14 04:48:26;;;;;;;5.43;4.93;;;;;23.50;101011.00;;;;2063438;28;20751;-53
2021/08/14 04:49:26;;;;;;;6.37;5.23;;;;;23.50;101008.00;;;;2063468;28;20588;-56
2021/08/14 04:50:27;;;;;;;5.80;5.20;;;;;23.50;101012.00;;;;2062899;28;20461;-56
2021/08/14 04:51:27;;;;;;;5.40;4.50;;;;;23.40;101004.00;;;;2063340;28;20364;-57
2021/08/14 04:52:27;;;;;;;5.60;4.87;;;;;23.50;101010.00;;;;2064480;28;20257;-52
2021/08/14 04:53:28;;;;;;;6.20;5.60;;;;;23.40;101010.00;;;;2064376;28;20412;-56
2021/08/14 04:54:28;;;;;;;5.80;4.93;;;;;23.50;101012.00;;;;2076585;28;20530;-52
2021/08/14 04:55:28;;;;;;;7.50;5.10;;;;;23.50;101006.00;;;;2064792;28;20222;-54
2021/08/14 04:56:29;;;;;;;5.40;4.77;;;;;23.50;101009.00;;;;2066305;28;20411;-55
2021/08/14 04:57:29;;;;;;;5.57;4.87;;;;;23.50;101004.00;;;;2070401;28;20684;-56
2021/08/14 04:58:30;;;;;;;4.80;4.33;;;;;23.50;101016.00;;;;2070177;28;20774;-53
2021/08/14 04:59:30;;;;;;;6.03;4.83;;;;;23.50;101012.00;;;;2070760;28;20610;-57
2021/08/14 05:00:31;;;;;;;6.37;5.40;;;;;23.50;101013.00;;;;2070743;28;20526;-56